sensor_id;sensor_type;location;lat;lon;timestamp;temperature;humidity
4749;DHT22;2388;53.582;9.962;2022-11-15T00:01:47;7.70;99.90
4749;DHT22;2388;53.582;9.962;2022-11-15T00:04:13;7.70;99.90
4749;DHT22;2388;53.582;9.962;2022-11-15T00:06:38;7.70;99.90
4749;DHT22;2388;53.582;9.962;2022-11-15T00:09:04;7.70;99.90
4749;DHT22;2388;53.582;9.962;2022-11-15T00:11:29;7.70;99.90
4749;DHT22;2388;53.582;9.962;2022-11-15T00:13:56;7.70;99.90
4749;DHT22;2388;53.582;9.962;2022-11-15T00:16:22;7.70;99.90
4749;DHT22;2388;53.582;9.962;2022-11-15T00:18:48;7.60;99.90
4749;DHT22;2388;53.582;9.962;2022-11-15T00:21:14;7.60;99.90
4749;DHT22;2388;53.582;9.962;2022-11-15T00:23:40;7.60;99.90
4749;DHT22;2388;53.582;9.962;2022-11-15T00:26:06;7.60;99.90
4749;DHT22;2388;53.582;9.962;2022-11-15T00:28:32;7.60;99.90
4749;DHT22;2388;53.582;9.962;2022-11-15T00:31:06;7.60;99.90
4749;DHT22;2388;53.582;9.962;2022-11-15T00:33:32;7.60;99.90
4749;DHT22;2388;53.582;9.962;2022-11-15T00:36:05;7.70;99.90
4749;DHT22;2388;53.582;9.962;2022-11-15T00:38:35;7.70;99.90
4749;DHT22;2388;53.582;9.962;2022-11-15T00:41:01;7.70;99.90
4749;DHT22;2388;53.582;9.962;2022-11-15T00:43:27;7.70;99.90
4749;DHT22;2388;53.582;9.962;2022-11-15T00:45:52;7.60;99.90
4749;DHT22;2388;53.582;9.962;2022-11-15T00:48:27;7.60;99.90
4749;DHT22;2388;53.582;9.962;2022-11-15T00:50:52;7.60;99.90
4749;DHT22;2388;53.582;9.962;2022-11-15T00:53:18;7.60;99.90
4749;DHT22;2388;53.582;9.962;2022-11-15T00:55:43;7.60;99.90
4749;DHT22;2388;53.582;9.962;2022-11-15T00:58:09;7.60;99.90
4749;DHT22;2388;53.582;9.962;2022-11-15T01:00:34;7.60;99.90
4749;DHT22;2388;53.582;9.962;2022-11-15T01:03:00;7.50;99.90
4749;DHT22;2388;53.582;9.962;2022-11-15T01:05:27;7.50;99.90
4749;DHT22;2388;53.582;9.962;2022-11-15T01:07:54;7.50;99.90
4749;DHT22;2388;53.582;9.962;2022-11-15T01:10:20;7.50;99.90
4749;DHT22;2388;53.582;9.962;2022-11-15T01:12:45;7.50;99.90
4749;DHT22;2388;53.582;9.962;2022-11-15T01:15:11;7.50;99.90
4749;DHT22;2388;53.582;9.962;2022-11-15T01:17:36;7.50;99.90
4749;DHT22;2388;53.582;9.962;2022-11-15T01:20:02;7.50;99.90
4749;DHT22;2388;53.582;9.962;2022-11-15T01:22:28;7.50;99.90
4749;DHT22;2388;53.582;9.962;2022-11-15T01:24:53;7.50;99.90
4749;DHT22;2388;53.582;9.962;2022-11-15T01:27:19;7.50;99.90
4749;DHT22;2388;53.582;9.962;2022-11-15T01:29:44;7.40;99.90
4749;DHT22;2388;53.582;9.962;2022-11-15T01:32:10;7.70;99.90
4749;DHT22;2388;53.582;9.962;2022-11-15T01:34:35;7.40;99.90
4749;DHT22;2388;53.582;9.962;2022-11-15T01:37:01;7.30;99.90
4749;DHT22;2388;53.582;9.962;2022-11-15T01:39:26;7.30;99.90
4749;DHT22;2388;53.582;9.962;2022-11-15T01:41:52;7.30;99.90
4749;DHT22;2388;53.582;9.962;2022-11-15T01:47:01;7.30;99.90
4749;DHT22;2388;53.582;9.962;2022-11-15T01:49:30;7.30;99.90
4749;DHT22;2388;53.582;9.962;2022-11-15T01:51:58;7.30;99.90
4749;DHT22;2388;53.582;9.962;2022-11-15T01:54:24;7.20;99.90
4749;DHT22;2388;53.582;9.962;2022-11-15T01:56:58;7.20;99.90
4749;DHT22;2388;53.582;9.962;2022-11-15T01:59:25;7.20;99.90
4749;DHT22;2388;53.582;9.962;2022-11-15T02:01:51;7.20;99.90
4749;DHT22;2388;53.582;9.962;2022-11-15T02:04:20;7.20;99.90
4749;DHT22;2388;53.582;9.962;2022-11-15T02:06:48;7.20;99.90
4749;DHT22;2388;53.582;9.962;2022-11-15T02:09:14;7.30;99.90
4749;DHT22;2388;53.582;9.962;2022-11-15T02:11:40;7.30;99.90
4749;DHT22;2388;53.582;9.962;2022-11-15T02:14:07;7.30;99.90
4749;DHT22;2388;53.582;9.962;2022-11-15T02:26:17;7.30;99.90
4749;DHT22;2388;53.582;9.962;2022-11-15T02:29:07;7.20;99.90
4749;DHT22;2388;53.582;9.962;2022-11-15T02:31:46;7.20;99.90
4749;DHT22;2388;53.582;9.962;2022-11-15T02:40:17;7.20;99.90
4749;DHT22;2388;53.582;9.962;2022-11-15T02:42:55;7.20;99.90
4749;DHT22;2388;53.582;9.962;2022-11-15T02:45:48;7.20;99.90
4749;DHT22;2388;53.582;9.962;2022-11-15T02:48:16;7.20;99.90
4749;DHT22;2388;53.582;9.962;2022-11-15T02:50:42;7.10;99.90
4749;DHT22;2388;53.582;9.962;2022-11-15T02:53:08;7.20;99.90
4749;DHT22;2388;53.582;9.962;2022-11-15T02:55:36;7.10;99.90
4749;DHT22;2388;53.582;9.962;2022-11-15T03:00:45;7.10;99.90
4749;DHT22;2388;53.582;9.962;2022-11-15T03:08:55;7.00;99.90
4749;DHT22;2388;53.582;9.962;2022-11-15T03:11:20;7.10;99.90
4749;DHT22;2388;53.582;9.962;2022-11-15T03:14:07;7.10;99.90
4749;DHT22;2388;53.582;9.962;2022-11-15T03:16:46;7.10;99.90
4749;DHT22;2388;53.582;9.962;2022-11-15T03:19:45;7.10;99.90
4749;DHT22;2388;53.582;9.962;2022-11-15T03:22:15;7.10;99.90
4749;DHT22;2388;53.582;9.962;2022-11-15T03:24:43;7.10;99.90
4749;DHT22;2388;53.582;9.962;2022-11-15T03:27:12;7.10;99.90
4749;DHT22;2388;53.582;9.962;2022-11-15T03:29:43;7.10;99.90
4749;DHT22;2388;53.582;9.962;2022-11-15T03:32:13;7.10;99.90
4749;DHT22;2388;53.582;9.962;2022-11-15T03:34:46;7.10;99.90
4749;DHT22;2388;53.582;9.962;2022-11-15T03:37:14;7.10;99.90
4749;DHT22;2388;53.582;9.962;2022-11-15T03:39:42;7.10;99.90
4749;DHT22;2388;53.582;9.962;2022-11-15T03:45:01;7.10;99.90
4749;DHT22;2388;53.582;9.962;2022-11-15T03:47:48;7.10;99.90
4749;DHT22;2388;53.582;9.962;2022-11-15T03:50:20;7.10;99.90
4749;DHT22;2388;53.582;9.962;2022-11-15T03:52:47;7.10;99.90
4749;DHT22;2388;53.582;9.962;2022-11-15T03:55:16;7.10;99.90
4749;DHT22;2388;53.582;9.962;2022-11-15T03:57:42;7.10;99.90
4749;DHT22;2388;53.582;9.962;2022-11-15T04:00:08;7.10;99.90
4749;DHT22;2388;53.582;9.962;2022-11-15T04:02:34;7.10;99.90
4749;DHT22;2388;53.582;9.962;2022-11-15T04:04:59;7.10;99.90
4749;DHT22;2388;53.582;9.962;2022-11-15T04:07:25;7.10;99.90
4749;DHT22;2388;53.582;9.962;2022-11-15T04:09:50;7.10;99.90
4749;DHT22;2388;53.582;9.962;2022-11-15T04:12:39;7.10;99.90
4749;DHT22;2388;53.582;9.962;2022-11-15T04:15:15;7.10;99.90
4749;DHT22;2388;53.582;9.962;2022-11-15T04:17:42;7.10;99.90
4749;DHT22;2388;53.582;9.962;2022-11-15T04:20:12;7.20;99.90
4749;DHT22;2388;53.582;9.962;2022-11-15T04:22:58;7.20;99.90
4749;DHT22;2388;53.582;9.962;2022-11-15T04:25:43;7.20;99.90
4749;DHT22;2388;53.582;9.962;2022-11-15T04:28:09;7.20;99.90
4749;DHT22;2388;53.582;9.962;2022-11-15T04:30:35;7.20;99.90
4749;DHT22;2388;53.582;9.962;2022-11-15T04:33:01;7.30;99.90
4749;DHT22;2388;53.582;9.962;2022-11-15T04:35:26;7.30;99.90
4749;DHT22;2388;53.582;9.962;2022-11-15T04:37:52;7.40;99.90
4749;DHT22;2388;53.582;9.962;2022-11-15T04:40:18;7.40;99.90
4749;DHT22;2388;53.582;9.962;2022-11-15T04:42:43;7.40;99.90
4749;DHT22;2388;53.582;9.962;2022-11-15T04:45:09;7.40;99.90
4749;DHT22;2388;53.582;9.962;2022-11-15T04:47:35;7.50;99.90
4749;DHT22;2388;53.582;9.962;2022-11-15T04:50:00;7.40;99.90
4749;DHT22;2388;53.582;9.962;2022-11-15T04:52:26;7.50;99.90
4749;DHT22;2388;53.582;9.962;2022-11-15T04:54:52;7.50;99.90
4749;DHT22;2388;53.582;9.962;2022-11-15T04:57:17;7.50;99.90
4749;DHT22;2388;53.582;9.962;2022-11-15T04:59:43;7.50;99.90
4749;DHT22;2388;53.582;9.962;2022-11-15T05:02:08;7.60;99.90
4749;DHT22;2388;53.582;9.962;2022-11-15T05:04:33;7.60;99.90
4749;DHT22;2388;53.582;9.962;2022-11-15T05:06:59;7.60;99.90
4749;DHT22;2388;53.582;9.962;2022-11-15T05:09:24;7.60;99.90
4749;DHT22;2388;53.582;9.962;2022-11-15T05:11:50;7.60;99.90
4749;DHT22;2388;53.582;9.962;2022-11-15T05:14:16;7.50;99.90
4749;DHT22;2388;53.582;9.962;2022-11-15T05:16:42;7.50;99.90
4749;DHT22;2388;53.582;9.962;2022-11-15T05:19:07;7.50;99.90
4749;DHT22;2388;53.582;9.962;2022-11-15T05:21:33;7.50;99.90
4749;DHT22;2388;53.582;9.962;2022-11-15T05:23:59;7.50;99.90
4749;DHT22;2388;53.582;9.962;2022-11-15T05:26:25;7.50;99.90
4749;DHT22;2388;53.582;9.962;2022-11-15T05:28:56;7.50;99.90
4749;DHT22;2388;53.582;9.962;2022-11-15T05:31:23;7.50;99.90
4749;DHT22;2388;53.582;9.962;2022-11-15T05:33:50;7.50;99.90
4749;DHT22;2388;53.582;9.962;2022-11-15T05:38:50;7.50;99.90
4749;DHT22;2388;53.582;9.962;2022-11-15T05:41:19;7.50;99.90
4749;DHT22;2388;53.582;9.962;2022-11-15T05:43:46;7.50;99.90
4749;DHT22;2388;53.582;9.962;2022-11-15T05:46:13;7.60;99.90
4749;DHT22;2388;53.582;9.962;2022-11-15T05:48:42;7.60;99.90
4749;DHT22;2388;53.582;9.962;2022-11-15T05:51:08;7.60;99.90
4749;DHT22;2388;53.582;9.962;2022-11-15T05:53:34;7.60;99.90
4749;DHT22;2388;53.582;9.962;2022-11-15T05:56:01;7.70;99.90
4749;DHT22;2388;53.582;9.962;2022-11-15T05:58:27;7.70;99.90
4749;DHT22;2388;53.582;9.962;2022-11-15T06:00:54;7.70;99.90
4749;DHT22;2388;53.582;9.962;2022-11-15T06:03:19;7.70;99.90
4749;DHT22;2388;53.582;9.962;2022-11-15T06:05:45;7.70;99.90
4749;DHT22;2388;53.582;9.962;2022-11-15T06:08:10;7.80;99.90
4749;DHT22;2388;53.582;9.962;2022-11-15T06:10:36;7.80;99.90
4749;DHT22;2388;53.582;9.962;2022-11-15T06:13:03;7.80;99.90
4749;DHT22;2388;53.582;9.962;2022-11-15T06:15:29;7.80;99.90
4749;DHT22;2388;53.582;9.962;2022-11-15T06:17:58;7.90;99.90
4749;DHT22;2388;53.582;9.962;2022-11-15T06:20:24;7.90;99.90
4749;DHT22;2388;53.582;9.962;2022-11-15T06:22:50;7.90;99.90
4749;DHT22;2388;53.582;9.962;2022-11-15T06:25:15;7.90;99.90
4749;DHT22;2388;53.582;9.962;2022-11-15T06:27:41;7.90;99.90
4749;DHT22;2388;53.582;9.962;2022-11-15T06:30:07;7.90;99.90
4749;DHT22;2388;53.582;9.962;2022-11-15T06:32:32;8.00;99.90
4749;DHT22;2388;53.582;9.962;2022-11-15T06:34:58;8.00;99.90
4749;DHT22;2388;53.582;9.962;2022-11-15T06:37:23;8.00;99.90
4749;DHT22;2388;53.582;9.962;2022-11-15T06:39:49;8.10;99.90
4749;DHT22;2388;53.582;9.962;2022-11-15T06:42:14;8.10;99.90
4749;DHT22;2388;53.582;9.962;2022-11-15T06:44:40;8.10;99.90
4749;DHT22;2388;53.582;9.962;2022-11-15T06:47:05;8.10;99.90
4749;DHT22;2388;53.582;9.962;2022-11-15T06:49:31;8.10;99.90
4749;DHT22;2388;53.582;9.962;2022-11-15T06:51:56;8.10;99.90
4749;DHT22;2388;53.582;9.962;2022-11-15T06:54:22;8.10;99.90
4749;DHT22;2388;53.582;9.962;2022-11-15T06:56:47;8.10;99.90
4749;DHT22;2388;53.582;9.962;2022-11-15T06:59:13;8.60;99.90
4749;DHT22;2388;53.582;9.962;2022-11-15T07:01:38;8.20;99.90
4749;DHT22;2388;53.582;9.962;2022-11-15T07:04:04;8.20;99.90
4749;DHT22;2388;53.582;9.962;2022-11-15T07:06:29;8.20;99.90
4749;DHT22;2388;53.582;9.962;2022-11-15T07:08:55;8.20;99.90
4749;DHT22;2388;53.582;9.962;2022-11-15T07:11:20;8.20;99.90
4749;DHT22;2388;53.582;9.962;2022-11-15T07:13:46;8.20;99.90
4749;DHT22;2388;53.582;9.962;2022-11-15T07:16:11;8.20;99.90
4749;DHT22;2388;53.582;9.962;2022-11-15T07:18:38;8.20;99.90
4749;DHT22;2388;53.582;9.962;2022-11-15T07:21:05;8.20;99.90
4749;DHT22;2388;53.582;9.962;2022-11-15T07:23:31;8.20;99.90
4749;DHT22;2388;53.582;9.962;2022-11-15T07:25:57;8.20;99.90
4749;DHT22;2388;53.582;9.962;2022-11-15T07:28:24;8.20;99.90
4749;DHT22;2388;53.582;9.962;2022-11-15T07:30:50;8.20;99.90
4749;DHT22;2388;53.582;9.962;2022-11-15T07:33:15;8.20;99.90
4749;DHT22;2388;53.582;9.962;2022-11-15T07:35:41;8.20;99.90
4749;DHT22;2388;53.582;9.962;2022-11-15T07:38:08;8.20;99.90
4749;DHT22;2388;53.582;9.962;2022-11-15T07:40:33;8.20;99.90
4749;DHT22;2388;53.582;9.962;2022-11-15T07:43:04;8.20;99.90
4749;DHT22;2388;53.582;9.962;2022-11-15T07:45:30;8.20;99.90
4749;DHT22;2388;53.582;9.962;2022-11-15T07:47:56;8.20;99.90
4749;DHT22;2388;53.582;9.962;2022-11-15T07:50:23;8.20;99.90
4749;DHT22;2388;53.582;9.962;2022-11-15T07:52:54;8.20;99.90
4749;DHT22;2388;53.582;9.962;2022-11-15T07:55:20;8.20;99.90
4749;DHT22;2388;53.582;9.962;2022-11-15T07:57:45;8.20;99.90
4749;DHT22;2388;53.582;9.962;2022-11-15T08:00:11;8.20;99.90
4749;DHT22;2388;53.582;9.962;2022-11-15T08:02:37;8.20;99.90
4749;DHT22;2388;53.582;9.962;2022-11-15T08:05:03;8.20;99.90
4749;DHT22;2388;53.582;9.962;2022-11-15T08:07:30;8.30;99.90
4749;DHT22;2388;53.582;9.962;2022-11-15T08:09:56;8.30;99.90
4749;DHT22;2388;53.582;9.962;2022-11-15T08:12:22;8.30;99.90
4749;DHT22;2388;53.582;9.962;2022-11-15T08:14:47;8.30;99.90
4749;DHT22;2388;53.582;9.962;2022-11-15T08:17:13;8.30;99.90
4749;DHT22;2388;53.582;9.962;2022-11-15T08:19:39;8.30;99.90
4749;DHT22;2388;53.582;9.962;2022-11-15T08:22:04;8.40;99.90
4749;DHT22;2388;53.582;9.962;2022-11-15T08:24:30;8.40;99.90
4749;DHT22;2388;53.582;9.962;2022-11-15T08:26:55;8.40;99.90
4749;DHT22;2388;53.582;9.962;2022-11-15T08:29:21;8.40;99.90
4749;DHT22;2388;53.582;9.962;2022-11-15T08:31:46;8.40;99.90
4749;DHT22;2388;53.582;9.962;2022-11-15T08:34:12;8.50;99.90
4749;DHT22;2388;53.582;9.962;2022-11-15T08:36:37;8.50;99.90
4749;DHT22;2388;53.582;9.962;2022-11-15T08:39:03;8.50;99.90
4749;DHT22;2388;53.582;9.962;2022-11-15T08:41:34;8.50;99.90
4749;DHT22;2388;53.582;9.962;2022-11-15T08:44:01;8.50;99.90
4749;DHT22;2388;53.582;9.962;2022-11-15T08:46:26;8.50;99.90
4749;DHT22;2388;53.582;9.962;2022-11-15T08:48:52;8.50;99.90
4749;DHT22;2388;53.582;9.962;2022-11-15T08:51:17;8.50;99.90
4749;DHT22;2388;53.582;9.962;2022-11-15T08:53:43;8.50;99.90
4749;DHT22;2388;53.582;9.962;2022-11-15T08:56:11;8.60;99.90
4749;DHT22;2388;53.582;9.962;2022-11-15T08:58:37;8.60;99.90
4749;DHT22;2388;53.582;9.962;2022-11-15T09:01:03;8.60;99.90
4749;DHT22;2388;53.582;9.962;2022-11-15T09:03:29;8.80;99.90
4749;DHT22;2388;53.582;9.962;2022-11-15T09:05:59;8.80;99.90
4749;DHT22;2388;53.582;9.962;2022-11-15T09:08:28;9.00;99.90
4749;DHT22;2388;53.582;9.962;2022-11-15T09:10:54;9.20;99.90
4749;DHT22;2388;53.582;9.962;2022-11-15T09:13:20;9.20;99.90
4749;DHT22;2388;53.582;9.962;2022-11-15T09:15:45;9.30;99.90
4749;DHT22;2388;53.582;9.962;2022-11-15T09:18:10;9.40;99.90
4749;DHT22;2388;53.582;9.962;2022-11-15T09:20:36;9.40;99.90
4749;DHT22;2388;53.582;9.962;2022-11-15T09:23:02;9.50;99.90
4749;DHT22;2388;53.582;9.962;2022-11-15T09:25:28;9.60;99.90
4749;DHT22;2388;53.582;9.962;2022-11-15T09:27:54;9.70;99.90
4749;DHT22;2388;53.582;9.962;2022-11-15T09:30:20;9.80;99.90
4749;DHT22;2388;53.582;9.962;2022-11-15T09:32:45;9.80;99.90
4749;DHT22;2388;53.582;9.962;2022-11-15T09:35:11;9.90;99.90
4749;DHT22;2388;53.582;9.962;2022-11-15T09:37:36;9.90;99.90
4749;DHT22;2388;53.582;9.962;2022-11-15T09:40:03;9.90;99.90
4749;DHT22;2388;53.582;9.962;2022-11-15T09:42:49;9.90;99.90
4749;DHT22;2388;53.582;9.962;2022-11-15T09:45:34;9.80;99.90
4749;DHT22;2388;53.582;9.962;2022-11-15T09:50:41;9.60;99.90
4749;DHT22;2388;53.582;9.962;2022-11-15T09:53:12;9.50;99.90
4749;DHT22;2388;53.582;9.962;2022-11-15T09:55:58;9.50;99.90
4749;DHT22;2388;53.582;9.962;2022-11-15T10:00:57;9.50;99.90
4749;DHT22;2388;53.582;9.962;2022-11-15T10:03:30;9.50;99.90
4749;DHT22;2388;53.582;9.962;2022-11-15T10:06:01;9.50;99.90
4749;DHT22;2388;53.582;9.962;2022-11-15T10:08:51;9.50;99.90
4749;DHT22;2388;53.582;9.962;2022-11-15T10:11:22;9.50;99.90
4749;DHT22;2388;53.582;9.962;2022-11-15T10:13:50;9.50;99.90
4749;DHT22;2388;53.582;9.962;2022-11-15T10:24:44;9.60;99.90
4749;DHT22;2388;53.582;9.962;2022-11-15T10:27:15;9.60;99.90
4749;DHT22;2388;53.582;9.962;2022-11-15T10:29:49;9.70;99.90
4749;DHT22;2388;53.582;9.962;2022-11-15T10:32:17;9.70;99.90
4749;DHT22;2388;53.582;9.962;2022-11-15T10:34:43;9.80;99.90
4749;DHT22;2388;53.582;9.962;2022-11-15T10:37:09;9.90;99.90
4749;DHT22;2388;53.582;9.962;2022-11-15T10:39:35;10.00;99.90
4749;DHT22;2388;53.582;9.962;2022-11-15T10:42:28;10.20;99.90
4749;DHT22;2388;53.582;9.962;2022-11-15T10:44:53;10.30;99.90
4749;DHT22;2388;53.582;9.962;2022-11-15T10:47:23;10.30;99.90
4749;DHT22;2388;53.582;9.962;2022-11-15T10:50:04;10.40;99.90
4749;DHT22;2388;53.582;9.962;2022-11-15T10:52:32;10.50;99.90
4749;DHT22;2388;53.582;9.962;2022-11-15T10:55:04;10.50;99.90
4749;DHT22;2388;53.582;9.962;2022-11-15T10:57:37;10.60;99.90
4749;DHT22;2388;53.582;9.962;2022-11-15T11:00:13;10.70;99.90
4749;DHT22;2388;53.582;9.962;2022-11-15T11:05:32;10.80;99.90
4749;DHT22;2388;53.582;9.962;2022-11-15T11:08:25;10.80;99.90
4749;DHT22;2388;53.582;9.962;2022-11-15T11:10:58;10.80;99.90
4749;DHT22;2388;53.582;9.962;2022-11-15T11:13:38;10.80;99.90
4749;DHT22;2388;53.582;9.962;2022-11-15T11:21:17;10.90;99.90
4749;DHT22;2388;53.582;9.962;2022-11-15T11:26:41;11.00;99.90
4749;DHT22;2388;53.582;9.962;2022-11-15T11:29:33;11.00;99.90
4749;DHT22;2388;53.582;9.962;2022-11-15T11:37:17;11.20;99.90
4749;DHT22;2388;53.582;9.962;2022-11-15T11:42:45;11.10;99.90
4749;DHT22;2388;53.582;9.962;2022-11-15T11:45:37;11.00;99.90
4749;DHT22;2388;53.582;9.962;2022-11-15T11:48:20;10.90;99.90
4749;DHT22;2388;53.582;9.962;2022-11-15T11:50:48;10.80;99.90
4749;DHT22;2388;53.582;9.962;2022-11-15T11:53:25;10.80;99.90
4749;DHT22;2388;53.582;9.962;2022-11-15T11:55:56;10.80;99.90
4749;DHT22;2388;53.582;9.962;2022-11-15T11:58:33;10.70;99.90
4749;DHT22;2388;53.582;9.962;2022-11-15T12:01:26;10.80;99.90
4749;DHT22;2388;53.582;9.962;2022-11-15T12:04:08;10.70;99.90
4749;DHT22;2388;53.582;9.962;2022-11-15T12:07:01;10.70;99.90
4749;DHT22;2388;53.582;9.962;2022-11-15T12:09:38;10.70;99.90
4749;DHT22;2388;53.582;9.962;2022-11-15T12:12:48;10.70;99.90
4749;DHT22;2388;53.582;9.962;2022-11-15T12:15:21;10.80;99.90
4749;DHT22;2388;53.582;9.962;2022-11-15T12:17:48;10.80;99.90
4749;DHT22;2388;53.582;9.962;2022-11-15T12:23:03;10.90;99.90
4749;DHT22;2388;53.582;9.962;2022-11-15T12:25:49;11.00;99.90
4749;DHT22;2388;53.582;9.962;2022-11-15T12:31:45;11.20;99.90
4749;DHT22;2388;53.582;9.962;2022-11-15T12:36:49;11.30;99.90
4749;DHT22;2388;53.582;9.962;2022-11-15T12:39:16;11.30;99.90
4749;DHT22;2388;53.582;9.962;2022-11-15T12:47:22;11.50;99.90
4749;DHT22;2388;53.582;9.962;2022-11-15T12:49:49;11.60;99.90
4749;DHT22;2388;53.582;9.962;2022-11-15T12:52:15;11.60;99.90
4749;DHT22;2388;53.582;9.962;2022-11-15T12:59:57;11.70;99.90
4749;DHT22;2388;53.582;9.962;2022-11-15T13:02:32;11.70;99.90
4749;DHT22;2388;53.582;9.962;2022-11-15T13:20:20;11.80;99.90
4749;DHT22;2388;53.582;9.962;2022-11-15T13:22:52;11.80;99.90
4749;DHT22;2388;53.582;9.962;2022-11-15T13:30:40;11.80;99.90
4749;DHT22;2388;53.582;9.962;2022-11-15T13:33:17;11.80;99.90
4749;DHT22;2388;53.582;9.962;2022-11-15T13:35:46;11.80;99.90
4749;DHT22;2388;53.582;9.962;2022-11-15T13:38:27;11.80;99.90
4749;DHT22;2388;53.582;9.962;2022-11-15T13:40:53;11.80;99.90
4749;DHT22;2388;53.582;9.962;2022-11-15T13:46:11;11.80;99.90
4749;DHT22;2388;53.582;9.962;2022-11-15T13:48:37;11.80;99.90
4749;DHT22;2388;53.582;9.962;2022-11-15T13:51:17;11.80;99.90
4749;DHT22;2388;53.582;9.962;2022-11-15T13:56:31;11.80;99.90
4749;DHT22;2388;53.582;9.962;2022-11-15T13:58:57;11.80;99.90
4749;DHT22;2388;53.582;9.962;2022-11-15T14:01:24;11.80;99.90
4749;DHT22;2388;53.582;9.962;2022-11-15T14:03:56;11.80;99.90
4749;DHT22;2388;53.582;9.962;2022-11-15T14:06:25;11.80;99.90
4749;DHT22;2388;53.582;9.962;2022-11-15T14:11:36;11.90;99.90
4749;DHT22;2388;53.582;9.962;2022-11-15T14:16:39;11.90;99.90
4749;DHT22;2388;53.582;9.962;2022-11-15T14:19:06;11.90;99.90
4749;DHT22;2388;53.582;9.962;2022-11-15T14:21:34;11.90;99.90
4749;DHT22;2388;53.582;9.962;2022-11-15T14:24:18;11.90;99.90
4749;DHT22;2388;53.582;9.962;2022-11-15T14:26:44;11.80;99.90
4749;DHT22;2388;53.582;9.962;2022-11-15T14:29:26;11.80;99.90
4749;DHT22;2388;53.582;9.962;2022-11-15T14:31:53;11.80;99.90
4749;DHT22;2388;53.582;9.962;2022-11-15T14:34:19;11.80;99.90
4749;DHT22;2388;53.582;9.962;2022-11-15T14:36:46;11.80;99.90
4749;DHT22;2388;53.582;9.962;2022-11-15T14:39:12;11.80;99.90
4749;DHT22;2388;53.582;9.962;2022-11-15T14:41:37;11.70;99.90
4749;DHT22;2388;53.582;9.962;2022-11-15T14:44:04;11.70;99.90
4749;DHT22;2388;53.582;9.962;2022-11-15T14:46:30;11.70;99.90
4749;DHT22;2388;53.582;9.962;2022-11-15T14:48:56;11.70;99.90
4749;DHT22;2388;53.582;9.962;2022-11-15T14:51:21;11.70;99.90
4749;DHT22;2388;53.582;9.962;2022-11-15T14:53:47;11.70;99.90
4749;DHT22;2388;53.582;9.962;2022-11-15T14:56:13;11.60;99.90
4749;DHT22;2388;53.582;9.962;2022-11-15T14:58:39;11.60;99.90
4749;DHT22;2388;53.582;9.962;2022-11-15T15:03:36;11.60;99.90
4749;DHT22;2388;53.582;9.962;2022-11-15T15:06:02;11.60;99.90
4749;DHT22;2388;53.582;9.962;2022-11-15T15:08:27;11.60;99.90
4749;DHT22;2388;53.582;9.962;2022-11-15T15:10:53;11.50;99.90
4749;DHT22;2388;53.582;9.962;2022-11-15T15:13:20;11.50;99.90
4749;DHT22;2388;53.582;9.962;2022-11-15T15:15:46;11.50;99.90
4749;DHT22;2388;53.582;9.962;2022-11-15T15:18:12;11.50;99.90
4749;DHT22;2388;53.582;9.962;2022-11-15T15:20:39;11.50;99.90
4749;DHT22;2388;53.582;9.962;2022-11-15T15:23:07;11.50;99.90
4749;DHT22;2388;53.582;9.962;2022-11-15T15:25:35;11.50;99.90
4749;DHT22;2388;53.582;9.962;2022-11-15T15:28:01;11.40;99.90
4749;DHT22;2388;53.582;9.962;2022-11-15T15:30:28;11.40;99.90
4749;DHT22;2388;53.582;9.962;2022-11-15T15:32:54;11.40;99.90
4749;DHT22;2388;53.582;9.962;2022-11-15T15:35:20;11.40;99.90
4749;DHT22;2388;53.582;9.962;2022-11-15T15:37:47;11.40;99.90
4749;DHT22;2388;53.582;9.962;2022-11-15T15:40:19;11.30;99.90
4749;DHT22;2388;53.582;9.962;2022-11-15T15:42:46;11.30;99.90
4749;DHT22;2388;53.582;9.962;2022-11-15T15:45:12;11.30;99.90
4749;DHT22;2388;53.582;9.962;2022-11-15T15:47:38;11.30;99.90
4749;DHT22;2388;53.582;9.962;2022-11-15T15:52:42;11.20;99.90
4749;DHT22;2388;53.582;9.962;2022-11-15T15:55:07;11.20;99.90
4749;DHT22;2388;53.582;9.962;2022-11-15T15:57:34;11.10;99.90
4749;DHT22;2388;53.582;9.962;2022-11-15T15:59:59;11.10;99.90
4749;DHT22;2388;53.582;9.962;2022-11-15T16:02:24;11.10;99.90
4749;DHT22;2388;53.582;9.962;2022-11-15T16:04:50;11.00;99.90
4749;DHT22;2388;53.582;9.962;2022-11-15T16:07:20;11.00;99.90
4749;DHT22;2388;53.582;9.962;2022-11-15T16:09:46;11.00;99.90
4749;DHT22;2388;53.582;9.962;2022-11-15T16:12:28;11.00;99.90
4749;DHT22;2388;53.582;9.962;2022-11-15T16:14:54;11.00;99.90
4749;DHT22;2388;53.582;9.962;2022-11-15T16:17:26;11.00;99.90
4749;DHT22;2388;53.582;9.962;2022-11-15T16:19:51;11.00;99.90
4749;DHT22;2388;53.582;9.962;2022-11-15T16:22:17;10.90;99.90
4749;DHT22;2388;53.582;9.962;2022-11-15T16:24:42;11.00;99.90
4749;DHT22;2388;53.582;9.962;2022-11-15T16:27:19;11.00;99.90
4749;DHT22;2388;53.582;9.962;2022-11-15T16:29:46;10.90;99.90
4749;DHT22;2388;53.582;9.962;2022-11-15T16:32:12;10.90;99.90
4749;DHT22;2388;53.582;9.962;2022-11-15T16:34:38;10.90;99.90
4749;DHT22;2388;53.582;9.962;2022-11-15T16:37:04;10.90;99.90
4749;DHT22;2388;53.582;9.962;2022-11-15T16:39:30;10.90;99.90
4749;DHT22;2388;53.582;9.962;2022-11-15T16:41:57;10.90;99.90
4749;DHT22;2388;53.582;9.962;2022-11-15T16:44:23;10.90;99.90
4749;DHT22;2388;53.582;9.962;2022-11-15T16:46:50;10.90;99.90
4749;DHT22;2388;53.582;9.962;2022-11-15T16:49:20;10.90;99.90
4749;DHT22;2388;53.582;9.962;2022-11-15T16:51:47;10.90;99.90
4749;DHT22;2388;53.582;9.962;2022-11-15T16:54:13;10.90;99.90
4749;DHT22;2388;53.582;9.962;2022-11-15T16:56:39;10.80;99.90
4749;DHT22;2388;53.582;9.962;2022-11-15T16:59:05;10.90;99.90
4749;DHT22;2388;53.582;9.962;2022-11-15T17:01:33;10.80;99.90
4749;DHT22;2388;53.582;9.962;2022-11-15T17:04:00;10.80;99.90
4749;DHT22;2388;53.582;9.962;2022-11-15T17:06:37;10.80;99.90
4749;DHT22;2388;53.582;9.962;2022-11-15T17:09:03;10.90;99.90
4749;DHT22;2388;53.582;9.962;2022-11-15T17:11:29;10.90;99.90
4749;DHT22;2388;53.582;9.962;2022-11-15T17:13:58;10.90;99.90
4749;DHT22;2388;53.582;9.962;2022-11-15T17:16:24;10.90;99.90
4749;DHT22;2388;53.582;9.962;2022-11-15T17:18:50;10.90;99.90
4749;DHT22;2388;53.582;9.962;2022-11-15T17:21:18;10.90;99.90
4749;DHT22;2388;53.582;9.962;2022-11-15T17:23:44;10.90;99.90
4749;DHT22;2388;53.582;9.962;2022-11-15T17:26:11;10.90;99.90
4749;DHT22;2388;53.582;9.962;2022-11-15T17:28:38;10.90;99.90
4749;DHT22;2388;53.582;9.962;2022-11-15T17:31:08;10.90;99.90
4749;DHT22;2388;53.582;9.962;2022-11-15T17:33:35;10.90;99.90
4749;DHT22;2388;53.582;9.962;2022-11-15T17:36:03;10.90;99.90
4749;DHT22;2388;53.582;9.962;2022-11-15T17:38:29;10.90;99.90
4749;DHT22;2388;53.582;9.962;2022-11-15T17:41:09;10.90;99.90
4749;DHT22;2388;53.582;9.962;2022-11-15T17:43:36;10.90;99.90
4749;DHT22;2388;53.582;9.962;2022-11-15T17:46:07;10.90;99.90
4749;DHT22;2388;53.582;9.962;2022-11-15T17:48:33;10.90;99.90
4749;DHT22;2388;53.582;9.962;2022-11-15T17:51:01;10.90;99.90
4749;DHT22;2388;53.582;9.962;2022-11-15T17:53:31;10.90;99.90
4749;DHT22;2388;53.582;9.962;2022-11-15T17:56:01;10.90;99.90
4749;DHT22;2388;53.582;9.962;2022-11-15T17:58:26;10.90;99.90
4749;DHT22;2388;53.582;9.962;2022-11-15T18:00:52;10.90;99.90
4749;DHT22;2388;53.582;9.962;2022-11-15T18:03:17;11.00;99.90
4749;DHT22;2388;53.582;9.962;2022-11-15T18:05:43;10.90;99.90
4749;DHT22;2388;53.582;9.962;2022-11-15T18:08:10;11.00;99.90
4749;DHT22;2388;53.582;9.962;2022-11-15T18:10:36;11.00;99.90
4749;DHT22;2388;53.582;9.962;2022-11-15T18:13:01;11.00;99.90
4749;DHT22;2388;53.582;9.962;2022-11-15T18:15:27;11.00;99.90
4749;DHT22;2388;53.582;9.962;2022-11-15T18:17:53;11.00;99.90
4749;DHT22;2388;53.582;9.962;2022-11-15T18:20:19;11.00;99.90
4749;DHT22;2388;53.582;9.962;2022-11-15T18:22:45;11.00;99.90